Time;durP1;ratioP1;P1;durP2;ratioP2;P2;SDS_P1;SDS_P2;PMS_P1;PMS_P2;Temp;Humidity;BMP_temperature;BMP_pressure;BME280_temperature;BME280_humidity;BME280_pressure;Samples;Min_cycle;Max_cycle;Signal;HPM_P1;HPM_P2
2021/11/21 00:01:04;;;;;;;;;22.00;18.00;;;;;21.91;40.46;101635.84;4974066;28;45561;-68
2021/11/21 00:03:29;;;;;;;;;17.25;16.50;;;;;21.92;39.99;101638.34;4971644;28;45354;-68
2021/11/21 00:05:54;;;;;;;;;19.00;17.00;;;;;21.94;40.15;101639.00;4974958;28;45355;-68
2021/11/21 00:08:20;;;;;;;;;21.00;18.25;;;;;21.92;39.96;101632.19;4972425;28;45597;-68
2021/11/21 00:10:45;;;;;;;;;20.75;17.25;;;;;21.91;39.71;101626.06;4972804;28;45461;-68
2021/11/21 00:13:11;;;;;;;;;15.75;15.75;;;;;21.94;40.23;101630.22;4974658;28;46235;-68
2021/11/21 00:15:41;;;;;;;;;19.75;17.75;;;;;21.95;39.78;101624.78;4975608;28;45458;-68
2021/11/21 00:18:06;;;;;;;;;20.50;18.00;;;;;21.93;39.75;101620.63;4974015;28;46655;-68
2021/11/21 00:20:32;;;;;;;;;19.00;17.25;;;;;21.93;40.02;101618.81;4972724;28;45422;-68
2021/11/21 00:22:57;;;;;;;;;23.00;19.50;;;;;21.89;40.21;101612.16;4972899;28;45327;-68
2021/11/21 00:25:23;;;;;;;;;17.75;17.00;;;;;21.92;40.19;101618.94;4972781;28;45813;-67
2021/11/21 00:27:48;;;;;;;;;24.00;18.25;;;;;21.92;39.80;101613.66;4974880;28;46416;-68
2021/11/21 00:30:14;;;;;;;;;21.25;17.75;;;;;21.91;39.75;101618.13;4972611;28;45462;-68
2021/11/21 00:32:39;;;;;;;;;20.25;18.75;;;;;21.91;40.07;101614.66;4975162;28;45472;-68
2021/11/21 00:35:05;;;;;;;;;19.75;17.50;;;;;21.89;40.13;101603.38;4968978;28;45503;-68
2021/11/21 00:37:31;;;;;;;;;14.75;14.50;;;;;21.91;40.28;101610.16;4972347;28;46168;-68
2021/11/21 00:39:57;;;;;;;;;19.50;15.00;;;;;21.87;40.21;101608.84;4973043;28;45466;-68
2021/11/21 00:42:24;;;;;;;;;19.00;16.75;;;;;21.88;40.25;101596.44;4975869;28;45427;-68
2021/11/21 00:44:50;;;;;;;;;15.50;13.50;;;;;21.90;40.44;101597.94;4973537;28;45546;-68
2021/11/21 00:47:15;;;;;;;;;21.25;17.00;;;;;21.85;39.89;101585.16;4972872;28;45463;-68
2021/11/21 00:49:41;;;;;;;;;18.50;14.75;;;;;21.89;39.90;101590.13;4971231;28;45297;-68
2021/11/21 00:52:09;;;;;;;;;19.50;17.00;;;;;21.90;40.00;101605.03;4974370;28;45439;-68
2021/11/21 00:57:08;;;;;;;;;17.50;15.50;;;;;21.88;40.36;101591.97;4973763;28;45529;-68
2021/11/21 00:59:34;;;;;;;;;19.00;19.00;;;;;21.84;40.06;101580.00;4973169;28;45455;-68
2021/11/21 01:02:01;;;;;;;;;17.50;16.50;;;;;21.89;40.21;101585.66;4972756;28;45399;-68
2021/11/21 01:04:27;;;;;;;;;20.00;18.25;;;;;21.88;39.78;101581.38;4970789;28;45620;-67
2021/11/21 01:06:52;;;;;;;;;21.75;21.75;;;;;21.73;39.73;101568.69;4973031;28;46483;-68
2021/11/21 01:09:23;;;;;;;;;18.00;17.25;;;;;21.87;39.92;101574.41;4959577;28;45340;-68
2021/11/21 01:11:49;;;;;;;;;19.25;17.00;;;;;21.86;39.92;101570.06;4960047;28;45382;-68
2021/11/21 01:14:14;;;;;;;;;16.25;16.25;;;;;21.88;40.00;101576.06;4959972;28;45952;-68
2021/11/21 01:16:40;;;;;;;;;19.25;18.00;;;;;21.89;39.82;101579.53;4960169;28;45500;-68
2021/11/21 01:19:05;;;;;;;;;18.25;17.25;;;;;21.89;40.30;101567.13;4957195;28;48809;-68
2021/11/21 01:21:31;;;;;;;;;19.00;16.00;;;;;21.87;39.99;101561.16;4958228;28;45394;-68
2021/11/21 01:23:56;;;;;;;;;17.75;16.50;;;;;21.86;39.92;101564.75;4967741;28;45479;-68
2021/11/21 01:26:22;;;;;;;;;21.50;19.00;;;;;21.89;40.03;101560.97;4968201;28;46433;-68
2021/11/21 01:28:47;;;;;;;;;20.50;16.50;;;;;21.85;40.04;101545.41;4967870;28;45553;-68
2021/11/21 01:31:13;;;;;;;;;17.50;16.00;;;;;21.89;39.87;101553.88;4970658;28;45247;-67
2021/11/21 01:33:39;;;;;;;;;15.25;14.25;;;;;21.88;40.36;101541.63;4971198;28;45356;-68
2021/11/21 01:36:05;;;;;;;;;16.25;15.25;;;;;21.91;40.29;101553.72;4969796;28;46542;-68
2021/11/21 01:38:30;;;;;;;;;19.50;16.00;;;;;21.91;40.11;101553.72;4968034;28;45438;-68
2021/11/21 01:40:56;;;;;;;;;18.25;15.75;;;;;21.90;39.79;101552.91;4968164;28;45470;-68
2021/11/21 01:43:22;;;;;;;;;19.00;16.25;;;;;21.88;39.79;101541.63;4968813;28;45211;-68
2021/11/21 01:45:47;;;;;;;;;18.00;14.75;;;;;21.90;40.22;101546.75;4971526;28;45464;-68
2021/11/21 01:48:13;;;;;;;;;16.75;15.75;;;;;21.92;39.77;101558.03;4973074;28;45425;-68
2021/11/21 01:50:41;;;;;;;;;17.25;16.75;;;;;21.92;40.36;101556.22;4972558;28;45499;-68
2021/11/21 01:53:07;;;;;;;;;18.25;16.25;;;;;21.92;39.65;101553.56;4972132;28;45737;-68
2021/11/21 01:55:34;;;;;;;;;17.00;16.00;;;;;21.92;39.87;101553.56;4972001;28;46915;-68
2021/11/21 01:57:59;;;;;;;;;20.25;16.50;;;;;21.89;39.88;101542.44;4970528;28;45381;-68
2021/11/21 02:00:29;;;;;;;;;17.00;16.50;;;;;21.89;39.70;101537.97;4974341;28;45514;-68
2021/11/21 02:02:54;;;;;;;;;18.00;16.00;;;;;21.91;39.85;101551.88;4971303;28;45353;-68
2021/11/21 02:05:20;;;;;;;;;14.00;14.00;;;;;21.89;39.81;101537.97;4971713;28;45405;-67
2021/11/21 02:07:47;;;;;;;;;20.75;16.50;;;;;21.88;39.98;101536.34;4971836;28;45522;-68
2021/11/21 02:10:15;;;;;;;;;15.25;14.00;;;;;21.89;39.76;101540.63;4972165;28;45304;-68
2021/11/21 02:12:41;;;;;;;;;18.00;14.75;;;;;21.89;40.29;101545.09;4971779;28;45316;-67
2021/11/21 02:15:11;;;;;;;;;19.50;16.25;;;;;21.89;40.15;101540.63;4969396;28;47924;-68
2021/11/21 02:17:38;;;;;;;;;16.25;14.00;;;;;21.84;40.17;101532.31;4969422;28;45335;-68
2021/11/21 02:20:06;;;;;;;;;17.00;17.00;;;;;21.88;40.15;101544.28;4971621;28;45495;-67
2021/11/21 02:22:31;;;;;;;;;16.75;16.75;;;;;21.89;39.82;101537.13;4971763;28;45364;-68
2021/11/21 02:24:57;;;;;;;;;16.25;13.25;;;;;21.87;40.14;101526.72;4970250;28;45301;-68
2021/11/21 02:27:28;;;;;;;;;15.75;14.50;;;;;21.89;40.41;101534.50;4973673;28;45365;-68
2021/11/21 02:29:54;;;;;;;;;18.25;14.25;;;;;21.89;40.10;101537.13;4973246;28;45273;-68
2021/11/21 02:32:19;;;;;;;;;15.00;13.25;;;;;21.85;40.31;101532.16;4971641;28;45288;-68
2021/11/21 02:34:45;;;;;;;;;15.75;15.75;;;;;21.88;40.03;101528.38;4971515;28;46151;-67
2021/11/21 02:37:10;;;;;;;;;17.25;16.50;;;;;21.82;40.04;101518.41;4970714;28;45499;-68
2021/11/21 02:39:38;;;;;;;;;13.00;11.25;;;;;21.88;39.72;101530.19;4972457;28;45414;-66
2021/11/21 02:42:04;;;;;;;;;18.50;17.00;;;;;21.88;39.84;101523.09;4973581;28;45373;-67
2021/11/21 02:44:30;;;;;;;;;16.00;14.50;;;;;21.85;40.19;101507.47;4971206;28;45501;-68
2021/11/21 02:46:55;;;;;;;;;16.50;15.00;;;;;21.87;39.84;101507.31;4970765;28;45280;-68
2021/11/21 02:49:21;;;;;;;;;15.50;15.00;;;;;21.87;40.27;101515.25;4971757;28;45322;-67
2021/11/21 02:51:47;;;;;;;;;15.75;13.75;;;;;21.77;40.04;101494.22;4971650;28;45358;-67
2021/11/21 02:54:13;;;;;;;;;15.75;13.75;;;;;21.81;39.63;101492.88;4972878;28;45373;-68
2021/11/21 02:56:39;;;;;;;;;15.00;15.00;;;;;21.83;40.17;101499.69;4971288;28;45410;-68
2021/11/21 02:59:04;;;;;;;;;14.75;13.75;;;;;21.85;40.22;101492.44;4971361;28;45426;-68
2021/11/21 03:01:30;;;;;;;;;15.50;14.50;;;;;21.87;40.22;101492.28;4971457;28;45383;-68
2021/11/21 03:03:55;;;;;;;;;14.75;14.00;;;;;21.88;40.32;101493.94;4970038;28;45297;-68
2021/11/21 03:06:22;;;;;;;;;16.00;16.00;;;;;21.89;40.14;101489.47;4974903;28;45366;-67
2021/11/21 03:08:48;;;;;;;;;18.00;13.25;;;;;21.89;40.17;101479.69;4971225;28;45476;-67
2021/11/21 03:11:28;;;;;;;;;19.25;15.50;;;;;21.90;40.09;101477.88;4971126;28;45413;-67
2021/11/21 03:13:55;;;;;;;;;13.75;13.00;;;;;21.89;39.54;101473.56;4971165;28;45771;-68
2021/11/21 03:16:21;;;;;;;;;14.00;11.25;;;;;21.87;39.79;101462.28;4971129;28;45465;-67
2021/11/21 03:18:46;;;;;;;;;17.50;16.75;;;;;21.88;40.08;101466.63;4971207;28;45369;-68
2021/11/21 03:21:12;;;;;;;;;14.75;14.75;;;;;21.91;39.81;101461.00;4970470;28;45479;-68
2021/11/21 03:23:38;;;;;;;;;17.75;14.00;;;;;21.89;40.10;101455.84;4972274;28;45537;-68
2021/11/21 03:26:04;;;;;;;;;14.00;12.50;;;;;21.91;40.17;101453.88;4971199;28;45470;-68
2021/11/21 03:28:29;;;;;;;;;13.50;12.75;;;;;21.91;39.65;101450.41;4970880;28;45558;-68
2021/11/21 03:30:54;;;;;;;;;14.00;13.75;;;;;21.88;40.33;101456.88;4973456;28;45493;-68
2021/11/21 03:33:20;;;;;;;;;14.00;13.25;;;;;21.87;40.07;101452.53;4975863;28;46242;-68
2021/11/21 03:35:45;;;;;;;;;15.50;13.00;;;;;21.87;39.75;101457.84;4974083;28;45445;-68
2021/11/21 03:38:10;;;;;;;;;12.50;11.75;;;;;21.74;40.10;101429.16;4973688;28;45521;-67
2021/11/21 03:40:36;;;;;;;;;17.25;14.00;;;;;21.89;40.15;101461.16;4973752;28;45476;-68
2021/11/21 03:43:02;;;;;;;;;13.75;12.25;;;;;21.89;39.82;101457.66;4973387;28;49679;-68
2021/11/21 03:45:28;;;;;;;;;17.25;15.25;;;;;21.88;39.80;101453.38;4975384;28;45464;-68
2021/11/21 03:47:54;;;;;;;;;14.75;14.00;;;;;21.89;39.52;101461.16;4972940;28;45296;-68
2021/11/21 03:50:19;;;;;;;;;13.50;12.75;;;;;21.82;39.99;101446.88;4973937;28;45383;-68
2021/11/21 03:52:45;;;;;;;;;13.75;13.75;;;;;21.86;39.91;101450.84;4973160;28;46557;-68
2021/11/21 03:55:13;;;;;;;;;14.75;14.25;;;;;21.88;40.15;101453.38;4973665;28;45450;-68
2021/11/21 03:57:39;;;;;;;;;13.50;13.25;;;;;21.84;39.93;101444.88;4974956;28;45358;-68
2021/11/21 04:00:10;;;;;;;;;14.50;14.25;;;;;21.84;40.04;101436.94;4973209;28;45354;-68
2021/11/21 04:02:35;;;;;;;;;12.00;12.00;;;;;21.85;40.33;101434.16;4973220;28;46732;-68
2021/11/21 04:05:02;;;;;;;;;14.00;13.00;;;;;21.84;39.86;101431.66;4973295;28;45403;-68
2021/11/21 04:07:28;;;;;;;;;13.50;12.00;;;;;21.79;39.81;101433.97;4973367;28;45541;-68
2021/11/21 04:09:53;;;;;;;;;12.75;12.25;;;;;21.86;39.92;101445.53;4973570;28;45587;-68
2021/11/21 04:12:19;;;;;;;;;15.00;13.25;;;;;21.85;39.79;101435.97;4975361;28;46705;-68
2021/11/21 04:14:44;;;;;;;;;14.00;12.00;;;;;21.85;39.67;101438.59;4973368;28;45407;-68
2021/11/21 04:17:10;;;;;;;;;12.75;12.50;;;;;21.85;40.07;101439.44;4973529;28;45387;-68
2021/11/21 04:19:35;;;;;;;;;12.50;12.25;;;;;21.84;40.11;101436.94;4973322;28;45426;-67
2021/11/21 04:22:01;;;;;;;;;11.25;10.25;;;;;21.86;39.78;101434.94;4971173;28;46949;-68
2021/11/21 04:24:26;;;;;;;;;13.25;12.25;;;;;21.83;39.66;101422.06;4975267;28;45363;-67
2021/11/21 04:26:52;;;;;;;;;12.00;11.75;;;;;21.84;39.93;101421.88;4973625;28;45427;-68
2021/11/21 04:29:17;;;;;;;;;14.00;12.50;;;;;21.82;39.97;101415.09;4973240;28;45536;-68
2021/11/21 04:31:43;;;;;;;;;17.25;13.00;;;;;21.84;40.16;101418.41;4973309;28;45445;-68
2021/11/21 04:34:08;;;;;;;;;12.50;12.50;;;;;21.81;39.67;101410.78;4978571;28;45245;-68
2021/11/21 04:36:34;;;;;;;;;12.50;10.00;;;;;21.79;40.11;101399.53;4985350;28;45364;-68
2021/11/21 04:38:59;;;;;;;;;14.25;13.25;;;;;21.87;39.85;101411.94;4972974;28;45557;-68
2021/11/21 04:41:25;;;;;;;;;12.75;10.50;;;;;21.84;39.78;101403.34;4972407;28;45818;-68
2021/11/21 04:43:50;;;;;;;;;11.25;11.25;;;;;21.84;40.12;101403.34;4972974;28;45317;-68
2021/11/21 04:46:16;;;;;;;;;16.00;15.00;;;;;21.70;39.64;101388.91;4973159;28;45378;-68
2021/11/21 04:48:41;;;;;;;;;8.50;6.75;;;;;21.87;40.19;101407.50;4973283;28;45328;-68
2021/11/21 04:51:06;;;;;;;;;3.00;0.00;;;;;21.88;40.06;101403.03;4970168;28;46332;-68
2021/11/21 04:53:32;;;;;;;;;14.50;13.00;;;;;21.89;40.07;101404.69;4970421;28;45418;-68
2021/11/21 04:55:57;;;;;;;;;16.75;12.00;;;;;21.87;40.04;101393.41;4973029;28;45296;-68
2021/11/21 04:58:22;;;;;;;;;14.25;11.25;;;;;21.87;40.46;101382.81;4973098;28;45363;-68
2021/11/21 05:00:48;;;;;;;;;13.50;13.50;;;;;21.88;40.06;101384.50;4972425;28;46113;-67
2021/11/21 05:03:14;;;;;;;;;16.50;13.75;;;;;21.89;39.62;101383.50;4973705;28;45516;-67
2021/11/21 05:05:39;;;;;;;;;12.00;11.25;;;;;21.91;39.99;101386.81;4972459;28;45288;-68
2021/11/21 05:08:07;;;;;;;;;12.00;12.00;;;;;21.90;40.05;101388.63;4972982;28;45349;-68
2021/11/21 05:10:33;;;;;;;;;11.00;9.25;;;;;21.91;39.73;101381.53;4972595;28;46392;-68
2021/11/21 05:12:59;;;;;;;;;12.00;11.50;;;;;21.89;39.62;101373.72;4972856;28;45309;-68
2021/11/21 05:15:25;;;;;;;;;14.75;13.75;;;;;21.89;39.98;101371.06;4973613;28;45541;-67
2021/11/21 05:17:52;;;;;;;;;11.50;10.50;;;;;21.86;39.91;101371.38;4971259;28;45330;-68
2021/11/21 05:20:18;;;;;;;;;14.25;14.00;;;;;21.86;39.77;101371.38;4971886;28;46324;-68
2021/11/21 05:22:45;;;;;;;;;11.75;11.75;;;;;21.81;40.14;101360.44;4972401;28;45510;-68
2021/11/21 05:25:11;;;;;;;;;12.50;11.25;;;;;21.81;39.68;101361.28;4972765;28;45410;-68
2021/11/21 05:27:36;;;;;;;;;11.00;9.25;;;;;21.87;40.04;101366.91;4972464;28;45325;-67
2021/11/21 05:30:05;;;;;;;;;13.75;12.00;;;;;21.82;39.92;101355.00;4973645;28;46294;-67
2021/11/21 05:32:30;;;;;;;;;14.00;13.50;;;;;21.84;39.97;101349.53;4972459;28;45308;-68
2021/11/21 05:34:56;;;;;;;;;11.00;10.25;;;;;21.86;39.83;101352.84;4972080;28;45587;-68
2021/11/21 05:37:21;;;;;;;;;16.75;13.00;;;;;21.87;39.78;101358.97;4972490;28;45228;-67
2021/11/21 05:39:46;;;;;;;;;13.50;12.00;;;;;21.83;40.24;101347.88;4971377;28;46608;-68
2021/11/21 05:42:12;;;;;;;;;10.25;10.25;;;;;21.83;40.09;101347.88;4972713;28;45434;-68
2021/11/21 05:44:38;;;;;;;;;9.50;9.50;;;;;21.84;40.08;101354.81;4972474;28;45299;-67
2021/11/21 05:47:04;;;;;;;;;14.25;10.75;;;;;21.83;40.14;101350.53;4972434;28;45411;-68
2021/11/21 05:49:30;;;;;;;;;13.25;10.25;;;;;21.84;39.82;101347.72;4971841;28;45610;-68
2021/11/21 05:51:55;;;;;;;;;9.50;9.00;;;;;21.82;39.88;101339.09;4971784;28;45426;-67
2021/11/21 05:54:20;;;;;;;;;10.25;10.25;;;;;21.80;39.74;101338.47;4974113;28;45881;-68
2021/11/21 05:56:46;;;;;;;;;13.00;10.25;;;;;21.85;40.01;101341.44;4972379;28;45594;-68
2021/11/21 05:59:11;;;;;;;;;11.00;10.00;;;;;21.84;40.15;101337.13;4972301;28;45374;-68
2021/11/21 06:01:37;;;;;;;;;11.50;10.75;;;;;21.84;39.86;101331.81;4972045;28;45522;-67
2021/11/21 06:04:03;;;;;;;;;11.75;10.00;;;;;21.85;39.55;101338.78;4972079;28;45555;-68
2021/11/21 06:06:29;;;;;;;;;11.50;10.50;;;;;21.85;39.62;101327.34;4973796;28;45422;-67
2021/11/21 06:08:54;;;;;;;;;10.00;10.00;;;;;21.83;40.10;101332.81;4970973;28;45991;-68
2021/11/21 06:11:19;;;;;;;;;10.00;10.00;;;;;21.83;40.17;101332.81;4971944;28;45276;-68
2021/11/21 06:13:45;;;;;;;;;9.25;9.00;;;;;21.83;40.12;101330.16;4972060;28;45598;-67
2021/11/21 06:16:10;;;;;;;;;11.25;11.25;;;;;21.84;40.08;101325.69;4972180;28;45430;-68
2021/11/21 06:18:36;;;;;;;;;9.25;9.25;;;;;21.83;39.82;101324.06;4972413;28;45686;-68
2021/11/21 06:21:02;;;;;;;;;11.00;11.00;;;;;21.85;39.49;101324.69;4971471;28;45455;-68
2021/11/21 06:23:33;;;;;;;;;12.00;12.00;;;;;21.81;40.10;101328.66;4972085;28;45532;-67
2021/11/21 06:25:58;;;;;;;;;13.75;11.75;;;;;21.82;40.34;101317.91;4971994;28;45616;-68
2021/11/21 06:28:25;;;;;;;;;10.75;9.75;;;;;21.87;39.93;101319.22;4971734;28;46654;-68
2021/11/21 06:30:52;;;;;;;;;10.25;8.50;;;;;21.87;39.91;101325.38;4971895;28;45336;-68
2021/11/21 06:33:17;;;;;;;;;9.50;9.50;;;;;21.87;39.95;101316.56;4973421;28;45333;-67
2021/11/21 06:35:43;;;;;;;;;10.00;10.00;;;;;21.87;39.71;101309.50;4970335;28;45538;-69
2021/11/21 06:38:08;;;;;;;;;13.00;10.25;;;;;21.88;39.76;101305.88;4971694;28;46563;-68
2021/11/21 06:40:33;;;;;;;;;12.00;10.00;;;;;21.85;40.11;101304.34;4971494;28;45505;-68
2021/11/21 06:42:59;;;;;;;;;11.75;11.75;;;;;21.90;39.74;101309.16;4971875;28;45442;-67
2021/11/21 06:45:24;;;;;;;;;10.00;10.00;;;;;21.83;39.86;101301.00;4973962;28;45322;-68
2021/11/21 06:47:50;;;;;;;;;9.00;8.50;;;;;21.87;39.60;101304.19;4971252;28;45495;-67
2021/11/21 06:50:17;;;;;;;;;8.25;8.25;;;;;21.89;39.53;101298.72;4971494;28;45346;-68
2021/11/21 06:52:43;;;;;;;;;9.50;8.25;;;;;21.89;40.29;101301.38;4971371;28;45339;-68
2021/11/21 06:55:11;;;;;;;;;8.75;8.75;;;;;21.89;39.75;101304.84;4971781;28;45565;-68
2021/11/21 06:57:37;;;;;;;;;13.25;12.25;;;;;21.88;39.94;101303.22;4972006;28;46541;-68
2021/11/21 07:00:08;;;;;;;;;13.25;10.25;;;;;21.88;40.02;101303.22;4971116;28;45497;-69
2021/11/21 07:02:33;;;;;;;;;11.50;11.00;;;;;21.84;39.51;101297.38;4970852;28;45444;-68
2021/11/21 07:04:59;;;;;;;;;9.50;9.50;;;;;21.83;39.63;101305.50;4970165;28;45483;-67
2021/11/21 07:07:24;;;;;;;;;7.75;6.75;;;;;21.84;39.79;101301.84;4971495;28;45299;-68
2021/11/21 07:09:50;;;;;;;;;10.25;10.00;;;;;21.83;39.94;101302.88;4971386;28;45373;-68
2021/11/21 07:12:16;;;;;;;;;16.25;12.00;;;;;21.82;39.66;101293.25;4973337;28;45264;-68
2021/11/21 07:14:42;;;;;;;;;11.00;11.00;;;;;21.85;39.94;101300.88;4969873;28;45632;-68
2021/11/21 07:17:07;;;;;;;;;9.25;8.50;;;;;21.85;39.63;101312.28;4970512;28;45547;-67
2021/11/21 07:19:32;;;;;;;;;8.50;8.50;;;;;21.85;39.55;101308.81;4971171;28;45342;-68
2021/11/21 07:21:58;;;;;;;;;10.50;10.50;;;;;21.85;39.71;101311.47;4970996;28;46064;-68
2021/11/21 07:24:23;;;;;;;;;12.00;10.25;;;;;21.85;39.62;101308.81;4972110;28;45324;-67
2021/11/21 07:26:49;;;;;;;;;12.25;9.75;;;;;21.82;39.74;101306.50;4971063;28;46517;-68
2021/11/21 07:29:15;;;;;;;;;9.25;9.00;;;;;21.81;39.78;101305.66;4970909;28;45497;-67
2021/11/21 07:31:41;;;;;;;;;9.00;8.75;;;;;21.82;39.66;101314.44;4970688;28;45376;-68
2021/11/21 07:34:06;;;;;;;;;10.50;10.50;;;;;21.80;39.82;101317.25;4971022;28;45427;-67
2021/11/21 07:36:32;;;;;;;;;10.25;10.00;;;;;21.85;40.05;101322.06;4971837;28;47144;-68
2021/11/21 07:38:57;;;;;;;;;11.25;10.00;;;;;21.81;39.54;101303.00;4970398;28;45347;-68
2021/11/21 07:41:23;;;;;;;;;9.00;9.00;;;;;21.81;40.02;101303.00;4970740;28;45613;-67
2021/11/21 07:43:48;;;;;;;;;14.25;12.25;;;;;21.79;39.70;101312.13;4970655;28;45569;-67
2021/11/21 07:46:14;;;;;;;;;11.75;10.50;;;;;21.84;40.15;101315.09;4970470;28;45584;-68
2021/11/21 07:48:39;;;;;;;;;11.50;11.25;;;;;21.81;39.59;101310.97;4971172;28;45561;-68
2021/11/21 07:51:05;;;;;;;;;9.00;8.00;;;;;21.84;39.67;101317.75;4971462;28;45324;-68
2021/11/21 07:53:31;;;;;;;;;11.00;10.75;;;;;21.81;40.00;101320.72;4969323;28;45497;-68
2021/11/21 07:55:57;;;;;;;;;9.50;9.50;;;;;21.81;39.75;101326.84;4970262;28;46570;-68
2021/11/21 07:58:23;;;;;;;;;10.50;9.25;;;;;21.84;39.49;101323.03;4970521;28;45359;-68
2021/11/21 08:00:48;;;;;;;;;12.00;10.00;;;;;21.84;39.72;101321.22;4970389;28;45561;-67
2021/11/21 08:03:14;;;;;;;;;7.75;7.50;;;;;21.83;40.05;101318.75;4972533;28;45496;-67
2021/11/21 08:05:40;;;;;;;;;11.00;10.00;;;;;21.85;39.97;101322.06;4970478;28;45460;-68
2021/11/21 08:08:06;;;;;;;;;7.50;7.25;;;;;21.85;39.95;101319.41;4970167;28;45439;-67
2021/11/21 08:10:33;;;;;;;;;11.25;10.00;;;;;21.87;39.53;101325.38;4970455;28;45478;-67
2021/11/21 08:12:59;;;;;;;;;8.75;8.00;;;;;21.86;40.02;101321.03;4970482;28;45550;-68
2021/11/21 08:15:25;;;;;;;;;10.50;9.50;;;;;21.88;39.75;101324.41;4972466;28;46373;-68
2021/11/21 08:17:50;;;;;;;;;9.00;8.00;;;;;21.88;39.55;101323.56;4971798;28;45271;-67
2021/11/21 08:20:16;;;;;;;;;9.75;8.00;;;;;21.88;40.20;101316.47;4973476;28;45899;-68
2021/11/21 08:22:41;;;;;;;;;9.25;8.50;;;;;21.88;39.53;101319.09;4973320;28;45467;-68
2021/11/21 08:25:08;;;;;;;;;9.75;8.75;;;;;21.89;39.96;101328.69;4973448;28;47513;-67
2021/11/21 08:27:34;;;;;;;;;10.25;10.25;;;;;21.88;40.14;101326.22;4974659;28;45394;-68
2021/11/21 08:30:00;;;;;;;;;6.50;5.25;;;;;21.88;39.66;101335.00;4974264;28;45382;-67
2021/11/21 08:32:25;;;;;;;;;13.25;10.75;;;;;21.87;39.57;101328.03;4971755;28;45464;-67
2021/11/21 08:34:51;;;;;;;;;9.25;8.50;;;;;21.84;39.71;101321.22;4973071;28;45885;-68
2021/11/21 08:37:16;;;;;;;;;9.00;8.00;;;;;21.79;39.54;101322.72;4973237;28;45568;-68
2021/11/21 08:39:42;;;;;;;;;9.25;8.00;;;;;21.88;39.57;101335.00;4973630;28;45299;-67
2021/11/21 08:42:07;;;;;;;;;14.00;11.25;;;;;21.88;39.71;101334.16;4972555;28;45241;-68
2021/11/21 08:44:33;;;;;;;;;8.50;8.50;;;;;21.87;40.00;101337.78;4972987;28;46194;-68
2021/11/21 08:46:58;;;;;;;;;7.25;7.25;;;;;21.83;40.09;101335.44;4972909;28;45395;-68
2021/11/21 08:49:24;;;;;;;;;9.00;7.50;;;;;21.86;39.91;101334.28;4973254;28;45364;-68
2021/11/21 08:51:49;;;;;;;;;7.00;7.00;;;;;21.85;39.63;101335.31;4973252;28;45331;-68
2021/11/21 08:54:16;;;;;;;;;9.50;7.75;;;;;21.84;40.21;101337.13;4974873;28;45410;-68
2021/11/21 08:56:43;;;;;;;;;10.00;7.25;;;;;21.84;40.06;101331.81;4971049;28;46084;-67
2021/11/21 08:59:09;;;;;;;;;9.50;9.00;;;;;21.86;39.62;101344.88;4972871;28;45344;-67
2021/11/21 09:01:34;;;;;;;;;8.75;8.25;;;;;21.87;39.68;101335.13;4972875;28;45776;-68
2021/11/21 09:04:00;;;;;;;;;10.00;9.25;;;;;21.82;40.05;101330.34;4972828;28;45445;-68
2021/11/21 09:06:25;;;;;;;;;9.75;8.00;;;;;21.84;39.88;101334.47;4974976;28;45417;-67
2021/11/21 09:08:50;;;;;;;;;9.00;8.00;;;;;21.82;39.78;101333.81;4972877;28;45441;-68
2021/11/21 09:11:16;;;;;;;;;9.00;8.00;;;;;21.83;39.72;101337.28;4971017;28;45446;-68
2021/11/21 09:13:41;;;;;;;;;8.00;8.00;;;;;21.82;40.14;101336.47;4972706;28;46130;-68
2021/11/21 09:16:08;;;;;;;;;8.50;8.00;;;;;21.77;39.91;101328.19;4972988;28;45500;-68
2021/11/21 09:18:34;;;;;;;;;10.00;8.25;;;;;21.82;39.81;101333.81;4974086;28;45292;-68
2021/11/21 09:20:59;;;;;;;;;9.75;8.75;;;;;21.83;39.82;101342.59;4973525;28;45394;-68
2021/11/21 09:23:25;;;;;;;;;7.00;7.00;;;;;21.79;39.57;101335.97;4972467;28;46392;-67
2021/11/21 09:25:52;;;;;;;;;9.50;9.00;;;;;21.84;39.72;101353.00;4972195;28;45270;-67
2021/11/21 09:28:19;;;;;;;;;6.75;6.75;;;;;21.84;39.78;101345.06;4970264;28;45595;-67
2021/11/21 09:30:45;;;;;;;;;9.00;9.00;;;;;21.79;39.81;101335.97;4972787;28;45354;-68
2021/11/21 09:33:11;;;;;;;;;8.00;8.00;;;;;21.83;40.24;101345.25;4974297;28;47166;-69
2021/11/21 09:35:37;;;;;;;;;8.00;8.00;;;;;21.80;40.23;101340.28;4970973;28;45392;-68
2021/11/21 09:38:03;;;;;;;;;8.50;6.50;;;;;21.84;39.78;101344.22;4972451;28;45604;-68
2021/11/21 09:40:29;;;;;;;;;8.00;8.00;;;;;21.84;39.72;101350.34;4972321;28;45252;-68
2021/11/21 09:42:54;;;;;;;;;10.25;10.25;;;;;21.85;39.86;101352.03;4972315;28;45515;-67
2021/11/21 09:45:20;;;;;;;;;6.00;3.75;;;;;21.87;40.06;101358.97;4974403;28;45370;-68
2021/11/21 09:47:53;;;;;;;;;9.00;7.25;;;;;21.86;40.30;101355.47;4972488;28;45358;-68
2021/11/21 09:50:20;;;;;;;;;9.75;7.50;;;;;21.87;39.48;101357.19;4971067;28;46283;-68
2021/11/21 09:52:45;;;;;;;;;9.75;8.50;;;;;21.83;39.71;101354.00;4972084;28;46229;-68
2021/11/21 09:55:11;;;;;;;;;9.75;9.25;;;;;21.89;39.92;101362.28;4971883;28;45602;-68
2021/11/21 09:57:36;;;;;;;;;7.25;7.25;;;;;21.89;40.09;101359.66;4973401;28;45259;-69
2021/11/21 10:00:10;;;;;;;;;9.25;8.00;;;;;21.90;39.71;101367.44;4973586;28;45454;-68
2021/11/21 10:02:39;;;;;;;;;9.50;9.00;;;;;21.88;40.01;101350.91;4971807;28;47868;-68
2021/11/21 10:05:16;;;;;;;;;5.75;5.50;;;;;21.89;39.76;101360.47;4972078;28;45672;-67
2021/11/21 10:07:42;;;;;;;;;9.75;7.75;;;;;21.89;39.60;101379.03;4972202;28;45474;-69
2021/11/21 10:10:12;;;;;;;;;9.25;8.75;;;;;21.90;39.64;101390.47;4971940;28;45418;-68
2021/11/21 10:12:42;;;;;;;;;6.25;6.25;;;;;21.89;39.72;101364.94;4972772;28;45431;-68
2021/11/21 10:15:09;;;;;;;;;2.00;2.00;;;;;21.88;39.60;101373.91;4971957;28;45394;-68
2021/11/21 10:17:36;;;;;;;;;7.75;7.75;;;;;21.88;39.62;101364.16;4973063;28;45438;-68
2021/11/21 10:20:06;;;;;;;;;8.25;8.25;;;;;21.87;39.53;101370.41;4971877;28;45366;-67
2021/11/21 10:22:50;;;;;;;;;7.25;6.00;;;;;21.87;39.76;101366.91;4971692;28;45450;-68
2021/11/21 10:25:44;;;;;;;;;7.00;7.00;;;;;21.85;40.02;101354.69;4971611;28;45400;-68
2021/11/21 10:28:12;;;;;;;;;7.75;6.75;;;;;21.87;39.87;101359.81;4956919;28;45442;-68
2021/11/21 10:31:10;;;;;;;;;9.00;8.00;;;;;21.86;39.89;101374.03;4972662;28;45585;-68
2021/11/21 10:33:44;;;;;;;;;9.00;6.00;;;;;21.86;39.91;101360.78;4970057;28;45382;-68
2021/11/21 10:36:17;;;;;;;;;6.25;6.25;;;;;21.81;39.66;101353.34;4971891;28;45481;-67
2021/11/21 10:38:59;;;;;;;;;6.00;6.00;;;;;21.86;39.92;101360.78;4970802;28;45387;-68
2021/11/21 10:41:31;;;;;;;;;7.75;7.00;;;;;21.71;39.65;101348.22;4971646;28;45517;-68
2021/11/21 10:44:04;;;;;;;;;7.00;6.75;;;;;21.85;39.97;101356.50;4971277;28;46643;-68
2021/11/21 10:46:29;;;;;;;;;5.00;5.00;;;;;21.84;40.10;101366.25;4971592;28;45858;-68
2021/11/21 10:49:12;;;;;;;;;8.00;7.25;;;;;21.78;39.39;101345.72;4971762;28;45590;-67
2021/11/21 10:51:37;;;;;;;;;7.00;7.00;;;;;21.85;39.54;101351.19;4970350;28;45350;-68
2021/11/21 10:54:03;;;;;;;;;9.50;7.50;;;;;21.87;39.99;101358.97;4970826;28;46490;-68
2021/11/21 10:56:30;;;;;;;;;6.00;6.00;;;;;21.82;40.20;101349.72;4971696;28;45517;-67
2021/11/21 10:58:55;;;;;;;;;6.25;6.25;;;;;21.81;39.57;101345.38;4971524;28;45402;-67
2021/11/21 11:01:24;;;;;;;;;8.00;7.00;;;;;21.80;39.87;101346.41;4971428;28;45542;-68
2021/11/21 11:04:14;;;;;;;;;10.25;7.00;;;;;21.79;39.89;101350.03;4971373;28;45503;-68
2021/11/21 11:06:41;;;;;;;;;7.25;6.00;;;;;21.78;39.95;101345.72;4970233;28;45347;-68
2021/11/21 11:09:14;;;;;;;;;6.50;5.50;;;;;21.83;39.71;101353.19;4969559;28;45368;-68
2021/11/21 11:11:41;;;;;;;;;7.50;4.50;;;;;21.81;39.64;101348.03;4971390;28;45462;-69
2021/11/21 11:14:06;;;;;;;;;6.00;6.00;;;;;21.84;39.95;101347.72;4970951;28;46410;-67